Time;durP1;ratioP1;P1;durP2;ratioP2;P2;SDS_P1;SDS_P2;PMS_P1;PMS_P2;Temp;Humidity;BMP_temperature;BMP_pressure;BME280_temperature;BME280_humidity;BME280_pressure;Samples;Min_cycle;Max_cycle;Signal;HPM_P1;HPM_P2
2022/09/12 00:01:37;;;;;;;6.25;4.90;;;15.40;99.90;;;;;;5047909;28;20359;-72
2022/09/12 00:04:10;;;;;;;7.50;5.03;;;15.40;99.90;;;;;;4972607;28;20288;-72
2022/09/12 00:06:37;;;;;;;5.78;4.70;;;15.40;99.90;;;;;;5023342;28;20037;-71
2022/09/12 00:09:08;;;;;;;5.22;4.18;;;15.40;99.90;;;;;;5050918;28;20106;-71
2022/09/12 00:11:44;;;;;;;6.35;4.90;;;15.40;99.90;;;;;;5067903;28;20028;-71
2022/09/12 00:14:13;;;;;;;7.00;4.55;;;15.40;99.90;;;;;;5069067;28;20116;-71
2022/09/12 00:16:41;;;;;;;7.45;4.68;;;15.40;99.90;;;;;;5045807;28;20339;-72
2022/09/12 00:19:09;;;;;;;5.75;4.20;;;15.40;99.90;;;;;;5018653;28;20453;-71
2022/09/12 00:21:39;;;;;;;6.40;4.70;;;15.40;99.90;;;;;;5068309;28;20097;-71
2022/09/12 00:24:06;;;;;;;6.68;4.45;;;15.30;99.90;;;;;;5003161;28;20048;-72
2022/09/12 00:26:33;;;;;;;5.70;4.03;;;15.30;99.90;;;;;;5050303;28;20631;-72
2022/09/12 00:29:00;;;;;;;5.82;4.38;;;15.30;99.90;;;;;;5066876;28;20509;-72
2022/09/12 00:31:27;;;;;;;6.68;4.60;;;15.30;99.90;;;;;;5066779;28;20390;-70
2022/09/12 00:33:56;;;;;;;6.70;4.28;;;15.30;99.90;;;;;;5065572;28;20051;-70
2022/09/12 00:36:25;;;;;;;5.75;4.45;;;15.30;99.90;;;;;;5070806;28;20093;-70
2022/09/12 00:38:53;;;;;;;7.65;4.10;;;15.30;99.90;;;;;;5065329;28;20060;-71
2022/09/12 00:41:29;;;;;;;4.82;3.83;;;15.20;99.90;;;;;;5010238;28;20888;-71
2022/09/12 00:44:01;;;;;;;6.18;4.50;;;15.20;99.90;;;;;;5055009;28;20048;-70
2022/09/12 00:46:47;;;;;;;4.88;4.10;;;15.20;99.90;;;;;;5064381;28;20040;-70
2022/09/12 00:49:17;;;;;;;7.38;3.85;;;15.20;99.90;;;;;;5067303;28;20047;-70
2022/09/12 00:51:53;;;;;;;6.70;4.30;;;15.10;99.90;;;;;;5071040;28;20098;-70
2022/09/12 00:54:23;;;;;;;5.88;4.20;;;15.20;99.90;;;;;;5071031;28;20036;-70
2022/09/12 00:56:53;;;;;;;6.40;4.15;;;15.10;99.90;;;;;;5073211;28;20036;-70
2022/09/12 00:59:26;;;;;;;5.00;3.70;;;15.10;99.90;;;;;;5070576;28;20067;-70
2022/09/12 01:01:55;;;;;;;7.30;3.97;;;15.10;99.90;;;;;;5060649;28;20116;-71
2022/09/12 01:04:24;;;;;;;5.82;4.30;;;15.00;99.90;;;;;;5037065;28;20063;-71
2022/09/12 01:06:53;;;;;;;5.00;4.03;;;15.00;99.90;;;;;;5041298;28;20037;-71
2022/09/12 01:09:22;;;;;;;5.75;3.83;;;15.00;99.90;;;;;;5052738;28;20051;-70
2022/09/12 01:11:51;;;;;;;5.32;3.67;;;15.00;99.90;;;;;;5071618;28;20171;-70
2022/09/12 01:14:18;;;;;;;6.05;4.13;;;14.90;99.90;;;;;;5065961;28;20405;-71
2022/09/12 01:16:46;;;;;;;6.25;4.10;;;14.90;99.90;;;;;;5057776;28;20463;-72
2022/09/12 01:19:24;;;;;;;7.03;3.92;;;14.90;99.90;;;;;;5042508;28;20903;-71
2022/09/12 01:22:28;;;;;;;5.57;4.15;;;14.90;99.90;;;;;;5064385;28;20139;-70
2022/09/12 01:25:18;;;;;;;5.97;3.75;;;14.90;99.90;;;;;;5002542;28;20151;-71
2022/09/12 01:27:55;;;;;;;5.72;4.40;;;14.80;99.90;;;;;;5061896;28;20048;-71
2022/09/12 01:30:42;;;;;;;7.05;4.53;;;14.80;99.90;;;;;;5065755;28;20037;-71
2022/09/12 01:33:26;;;;;;;5.18;3.42;;;14.80;99.90;;;;;;5065177;28;20053;-72
2022/09/12 01:36:00;;;;;;;7.85;4.50;;;14.70;99.90;;;;;;5065179;28;20062;-72
2022/09/12 01:38:28;;;;;;;5.53;4.32;;;14.70;99.90;;;;;;5062876;28;20458;-71
2022/09/12 01:43:48;;;;;;;7.28;4.75;;;14.70;99.90;;;;;;5101078;28;20533;-74
2022/09/12 01:46:26;;;;;;;7.57;4.45;;;14.70;99.90;;;;;;5094293;28;20036;-75
2022/09/12 01:49:16;;;;;;;7.40;4.53;;;14.70;99.90;;;;;;5100744;28;20413;-75
2022/09/12 01:51:59;;;;;;;6.25;4.53;;;14.70;99.90;;;;;;5080216;28;20071;-74
2022/09/12 01:54:40;;;;;;;6.07;4.47;;;14.70;99.90;;;;;;5069184;28;20052;-74
2022/09/12 01:57:13;;;;;;;6.32;4.43;;;14.70;99.90;;;;;;5077852;28;20115;-74
2022/09/12 01:59:46;;;;;;;7.93;5.38;;;14.60;99.90;;;;;;5087849;28;20036;-73
2022/09/12 02:02:34;;;;;;;7.65;4.32;;;14.60;99.90;;;;;;5075351;28;20163;-75
2022/09/12 02:05:18;;;;;;;6.13;3.97;;;14.60;99.90;;;;;;5071479;28;20523;-74
2022/09/12 02:07:50;;;;;;;8.05;4.90;;;14.60;99.90;;;;;;5078402;28;20093;-75
2022/09/12 02:10:23;;;;;;;6.35;4.75;;;14.60;99.90;;;;;;5074310;28;20031;-75
2022/09/12 02:12:57;;;;;;;6.35;4.53;;;14.60;99.90;;;;;;5087114;28;20048;-74
2022/09/12 02:15:31;;;;;;;6.95;4.78;;;14.60;99.90;;;;;;5087316;28;20125;-75
2022/09/12 02:17:59;;;;;;;6.20;4.05;;;14.60;99.90;;;;;;5084875;28;20043;-75
2022/09/12 02:20:28;;;;;;;7.80;4.90;;;14.60;99.90;;;;;;5069727;28;20079;-75
2022/09/12 02:22:56;;;;;;;7.43;4.90;;;14.50;99.90;;;;;;5087387;28;20044;-74
2022/09/12 02:25:24;;;;;;;6.35;4.43;;;14.50;99.90;;;;;;5079194;28;20040;-75
2022/09/12 02:28:20;;;;;;;7.55;4.35;;;14.50;99.90;;;;;;5078184;28;20059;-75
2022/09/12 02:31:03;;;;;;;6.90;4.65;;;14.50;99.90;;;;;;5075476;28;20048;-75
2022/09/12 02:33:43;;;;;;;7.25;4.90;;;14.50;99.90;;;;;;5083871;28;20046;-75
2022/09/12 02:36:35;;;;;;;7.30;4.28;;;14.50;99.90;;;;;;5083099;28;20173;-75
2022/09/12 02:39:01;;;;;;;6.15;4.47;;;14.40;99.90;;;;;;5033616;28;20051;-75
2022/09/12 02:41:27;;;;;;;6.85;4.55;;;14.40;99.90;;;;;;5078351;28;20508;-75
2022/09/12 02:43:53;;;;;;;6.43;4.57;;;14.40;99.90;;;;;;5079321;28;20040;-75
2022/09/12 02:46:27;;;;;;;7.63;5.22;;;14.40;99.90;;;;;;5081412;28;20043;-75
2022/09/12 02:48:54;;;;;;;7.32;4.72;;;14.30;99.90;;;;;;5083513;28;20055;-75
2022/09/12 02:51:20;;;;;;;6.75;4.95;;;14.30;99.90;;;;;;5075283;28;20044;-75
2022/09/12 02:53:46;;;;;;;7.43;4.55;;;14.30;99.90;;;;;;5078282;28;20051;-75
2022/09/12 02:56:18;;;;;;;9.38;5.38;;;14.30;99.90;;;;;;5076894;28;20033;-75
2022/09/12 02:58:44;;;;;;;7.18;5.20;;;14.30;99.90;;;;;;5068859;28;20489;-75
2022/09/12 03:01:13;;;;;;;;;;;14.30;99.90;;;;;;5081785;28;20059;-75
2022/09/12 03:04:00;;;;;;;8.75;5.38;;;14.30;99.90;;;;;;5068286;28;20298;-75
2022/09/12 03:06:35;;;;;;;;;;;14.20;99.90;;;;;;5074916;28;20040;-75
2022/09/12 03:09:09;;;;;;;7.57;5.25;;;14.20;99.90;;;;;;5069499;28;20138;-75
2022/09/12 03:11:59;;;;;;;8.73;5.95;;;14.20;99.90;;;;;;5070036;28;20489;-74
2022/09/12 03:14:50;;;;;;;10.60;5.82;;;14.20;99.90;;;;;;5074315;28;20044;-74
2022/09/12 03:17:24;;;;;;;9.20;6.03;;;14.20;99.90;;;;;;5074843;28;20035;-74
2022/09/12 03:19:57;;;;;;;11.00;6.25;;;14.20;99.90;;;;;;5077588;28;20039;-79
2022/09/12 03:22:29;;;;;;;10.32;6.25;;;14.20;99.90;;;;;;5074907;28;20043;-80
2022/09/12 03:25:01;;;;;;;11.13;6.97;;;14.20;99.90;;;;;;5079845;28;20040;-74
2022/09/12 03:27:33;;;;;;;11.57;6.90;;;14.20;99.90;;;;;;5070248;28;20090;-74
2022/09/12 03:29:59;;;;;;;11.85;7.45;;;14.20;99.90;;;;;;5083371;28;20063;-74
2022/09/12 03:32:45;;;;;;;12.93;7.70;;;14.30;99.90;;;;;;5085484;28;20075;-74
2022/09/12 03:35:12;;;;;;;14.90;7.78;;;14.20;99.90;;;;;;5086536;28;20072;-74
2022/09/12 03:37:37;;;;;;;11.00;7.68;;;14.30;99.90;;;;;;5068558;28;20413;-74
2022/09/12 03:40:05;;;;;;;11.32;7.18;;;14.20;99.90;;;;;;5086054;28;20044;-74
2022/09/12 03:42:30;;;;;;;14.48;8.63;;;14.20;99.90;;;;;;5078022;28;20083;-74
2022/09/12 03:44:56;;;;;;;13.75;8.88;;;14.20;99.90;;;;;;5084155;28;20087;-74
2022/09/12 03:47:21;;;;;;;11.23;7.23;;;14.20;99.90;;;;;;5085996;28;20040;-74
2022/09/12 03:49:47;;;;;;;11.15;7.40;;;14.20;99.90;;;;;;5074147;28;20071;-74
2022/09/12 03:52:13;;;;;;;14.27;7.60;;;14.20;99.90;;;;;;5085510;28;20055;-74
2022/09/12 03:54:38;;;;;;;12.60;7.87;;;14.20;99.90;;;;;;5082006;28;20365;-74
2022/09/12 03:57:04;;;;;;;13.02;7.70;;;14.20;99.90;;;;;;5075677;28;20032;-74
2022/09/12 03:59:30;;;;;;;13.18;8.20;;;14.20;99.90;;;;;;5075792;28;20509;-74
2022/09/12 04:01:56;;;;;;;13.35;7.90;;;14.20;99.90;;;;;;5082078;28;20047;-73
2022/09/12 04:04:21;;;;;;;12.57;8.10;;;14.20;99.90;;;;;;5076825;28;20097;-74
2022/09/12 04:06:47;;;;;;;12.20;8.23;;;14.20;99.90;;;;;;5080586;28;20907;-73
2022/09/12 04:09:12;;;;;;;13.25;8.23;;;14.20;99.90;;;;;;5087347;28;20043;-74
2022/09/12 04:11:38;;;;;;;15.97;9.30;;;14.30;99.90;;;;;;5080583;28;20064;-74
2022/09/12 04:14:04;;;;;;;15.32;9.35;;;14.20;99.90;;;;;;5083173;28;20316;-73
2022/09/12 04:16:31;;;;;;;14.88;9.23;;;14.20;99.90;;;;;;5074667;28;20154;-74
2022/09/12 04:18:56;;;;;;;13.48;8.75;;;14.30;99.90;;;;;;5088074;28;20051;-74
2022/09/12 04:21:23;;;;;;;14.32;9.07;;;14.30;99.90;;;;;;5076564;28;20044;-74
2022/09/12 04:23:49;;;;;;;16.10;9.70;;;14.30;99.90;;;;;;5086217;28;20132;-74
2022/09/12 04:26:16;;;;;;;15.75;8.57;;;14.30;99.90;;;;;;5089970;28;20115;-73
2022/09/12 04:28:42;;;;;;;16.00;9.32;;;14.40;99.90;;;;;;5086878;28;20063;-73
2022/09/12 04:31:16;;;;;;;16.40;9.65;;;14.30;99.90;;;;;;5086871;28;20131;-73
2022/09/12 04:33:43;;;;;;;14.45;9.05;;;14.30;99.90;;;;;;5085179;28;20056;-74
2022/09/12 04:36:15;;;;;;;15.23;9.13;;;14.40;99.90;;;;;;5079105;28;20504;-74
2022/09/12 04:38:42;;;;;;;15.45;9.52;;;14.40;99.90;;;;;;5087458;28;20093;-73
2022/09/12 04:41:17;;;;;;;14.93;9.50;;;14.40;99.90;;;;;;5085094;28;20036;-75
2022/09/12 04:43:45;;;;;;;16.50;9.30;;;14.40;99.90;;;;;;5088370;28;20065;-74
2022/09/12 04:46:14;;;;;;;14.25;8.93;;;14.40;99.90;;;;;;5073043;28;20131;-74
2022/09/12 04:48:39;;;;;;;15.15;9.85;;;14.40;99.90;;;;;;5063341;28;20041;-75
2022/09/12 04:51:10;;;;;;;15.77;9.77;;;14.50;99.90;;;;;;5081832;28;20170;-74
2022/09/12 04:53:36;;;;;;;17.83;9.82;;;14.50;99.90;;;;;;5085260;28;20467;-74
2022/09/12 04:56:06;;;;;;;;;;;14.50;99.90;;;;;;5074067;28;20441;-74
2022/09/12 04:58:32;;;;;;;16.15;9.57;;;14.50;99.90;;;;;;5065634;28;19920;-74
2022/09/12 05:01:12;;;;;;;17.80;10.68;;;14.50;99.90;;;;;;5087654;28;20044;-74
2022/09/12 05:03:42;;;;;;;18.23;10.73;;;14.50;99.90;;;;;;5091627;28;20059;-74
2022/09/12 05:06:28;;;;;;;18.75;10.52;;;14.50;99.90;;;;;;5072233;28;20416;-75
2022/09/12 05:08:55;;;;;;;16.17;10.10;;;14.60;99.90;;;;;;5078033;28;20444;-74
2022/09/12 05:11:22;;;;;;;;;;;14.50;99.90;;;;;;5077222;28;20165;-74
2022/09/12 05:13:48;;;;;;;20.52;10.75;;;14.50;99.90;;;;;;5095576;28;20196;-74
2022/09/12 05:16:15;;;;;;;25.17;11.35;;;14.60;99.90;;;;;;5087021;28;20071;-74
2022/09/12 05:18:42;;;;;;;17.10;10.20;;;14.60;99.90;;;;;;5083948;28;20040;-74
2022/09/12 05:21:09;;;;;;;;;;;14.60;99.90;;;;;;5083556;28;20090;-74
2022/09/12 05:23:37;;;;;;;20.30;11.38;;;14.60;99.90;;;;;;5080211;28;19920;-74
2022/09/12 05:26:05;;;;;;;19.02;10.88;;;14.60;99.90;;;;;;5086254;28;20210;-74
2022/09/12 05:28:36;;;;;;;18.95;11.35;;;14.70;99.90;;;;;;5079522;28;20125;-80
2022/09/12 05:31:11;;;;;;;19.95;11.50;;;14.70;99.90;;;;;;5078172;28;20036;-74
2022/09/12 05:33:39;;;;;;;17.80;11.50;;;14.70;99.90;;;;;;5086917;28;20451;-75
2022/09/12 05:36:08;;;;;;;19.85;11.82;;;14.70;99.90;;;;;;5091086;28;20036;-75
2022/09/12 05:38:34;;;;;;;19.70;12.05;;;14.80;99.90;;;;;;5061864;28;20044;-74
2022/09/12 05:41:09;;;;;;;17.02;10.27;;;14.80;99.90;;;;;;5082130;28;20051;-74
2022/09/12 05:43:36;;;;;;;19.20;11.38;;;14.80;99.90;;;;;;5082213;28;20504;-74
2022/09/12 05:46:09;;;;;;;21.45;11.70;;;14.80;99.90;;;;;;5084186;28;20039;-74
2022/09/12 05:48:36;;;;;;;21.00;11.85;;;14.90;99.90;;;;;;5063383;28;20047;-76
2022/09/12 05:51:05;;;;;;;20.25;11.55;;;14.90;99.90;;;;;;5082478;28;20051;-77
2022/09/12 05:53:31;;;;;;;21.60;11.80;;;14.90;99.90;;;;;;5078665;28;20047;-76
2022/09/12 05:56:04;;;;;;;22.90;12.02;;;14.90;99.90;;;;;;5081264;28;20050;-77
2022/09/12 05:58:29;;;;;;;21.40;12.00;;;15.00;99.90;;;;;;5075362;28;20105;-75
2022/09/12 06:01:00;;;;;;;23.13;12.25;;;14.90;99.90;;;;;;5078741;28;20036;-81
2022/09/12 06:03:25;;;;;;;23.88;12.23;;;15.00;99.90;;;;;;5079126;28;20043;-73
2022/09/12 06:05:51;;;;;;;22.30;12.43;;;15.00;99.90;;;;;;5082706;28;20138;-75
2022/09/12 06:08:17;;;;;;;19.45;11.77;;;15.00;99.90;;;;;;5060959;28;20307;-74
2022/09/12 06:10:42;;;;;;;21.83;12.43;;;15.00;99.90;;;;;;5080467;28;20043;-74
2022/09/12 06:13:08;;;;;;;23.85;13.38;;;15.10;99.90;;;;;;5078158;28;20355;-75
2022/09/12 06:15:34;;;;;;;22.70;12.70;;;15.10;99.90;;;;;;5082707;28;20043;-74
2022/09/12 06:17:59;;;;;;;25.08;12.60;;;15.10;99.90;;;;;;5090361;28;20136;-74
2022/09/12 06:20:25;;;;;;;24.00;13.83;;;15.10;99.90;;;;;;5081215;28;20385;-74
2022/09/12 06:22:52;;;;;;;24.37;12.77;;;15.10;99.90;;;;;;5076626;28;20353;-74
2022/09/12 06:25:18;;;;;;;23.52;12.82;;;15.20;99.90;;;;;;5080272;28;20116;-75
2022/09/12 06:27:44;;;;;;;28.77;14.52;;;15.20;99.90;;;;;;5079155;28;20091;-74
2022/09/12 06:30:11;;;;;;;30.40;14.35;;;15.20;99.90;;;;;;5077995;28;20036;-75
2022/09/12 06:32:36;;;;;;;;;;;15.20;99.90;;;;;;5065350;28;20040;-74
2022/09/12 06:35:04;;;;;;;24.83;13.55;;;15.30;99.90;;;;;;5073764;28;20372;-74
2022/09/12 06:37:30;;;;;;;23.20;13.50;;;15.20;99.90;;;;;;5078232;28;20040;-74
2022/09/12 06:39:55;;;;;;;28.15;14.63;;;15.30;99.90;;;;;;5074203;28;20059;-74
2022/09/12 06:42:21;;;;;;;23.23;14.10;;;15.30;99.90;;;;;;5071771;28;20047;-74
2022/09/12 06:44:49;;;;;;;27.90;14.95;;;15.30;99.90;;;;;;5080737;28;20108;-74
2022/09/12 06:47:14;;;;;;;28.20;15.05;;;15.40;99.90;;;;;;5077038;28;20040;-74
2022/09/12 06:49:40;;;;;;;27.23;14.27;;;15.40;99.90;;;;;;5081239;28;20051;-74
2022/09/12 06:52:06;;;;;;;26.87;15.47;;;15.40;99.90;;;;;;5085307;28;20285;-74
2022/09/12 06:54:31;;;;;;;31.15;15.20;;;15.40;99.90;;;;;;5082510;28;20292;-74
2022/09/12 06:56:57;;;;;;;29.48;16.05;;;15.50;99.90;;;;;;5078153;28;20040;-74
2022/09/12 06:59:23;;;;;;;30.13;15.20;;;15.50;99.90;;;;;;5075901;28;20075;-73
2022/09/12 07:01:49;;;;;;;;;;;15.50;99.90;;;;;;5075460;28;20040;-73
2022/09/12 07:04:15;;;;;;;31.10;14.52;;;15.50;99.90;;;;;;5076818;28;19923;-74
2022/09/12 07:06:42;;;;;;;33.72;16.13;;;15.50;99.90;;;;;;5053892;28;20048;-74
2022/09/12 07:09:15;;;;;;;31.48;15.30;;;15.60;99.90;;;;;;5084428;28;20048;-74
2022/09/12 07:11:42;;;;;;;29.92;15.43;;;15.70;99.90;;;;;;5073618;28;20166;-74
2022/09/12 07:14:10;;;;;;;31.30;16.35;;;15.60;99.90;;;;;;5078258;28;20159;-74
2022/09/12 07:16:36;;;;;;;44.45;20.50;;;15.60;99.90;;;;;;5073928;28;20400;-74
2022/09/12 07:19:03;;;;;;;36.80;17.00;;;15.70;99.90;;;;;;5075052;28;20490;-74
2022/09/12 07:21:29;;;;;;;32.95;17.45;;;15.70;99.90;;;;;;5072670;28;20101;-74
2022/09/12 07:23:58;;;;;;;30.35;17.02;;;15.70;99.90;;;;;;5078756;28;20306;-74
2022/09/12 07:26:26;;;;;;;34.03;16.92;;;15.70;99.90;;;;;;5079592;28;20047;-73
2022/09/12 07:28:53;;;;;;;27.75;16.45;;;15.80;99.90;;;;;;5053929;28;20090;-74
2022/09/12 07:31:29;;;;;;;30.98;15.70;;;15.80;99.90;;;;;;5083611;28;20032;-74
2022/09/12 07:33:54;;;;;;;32.42;16.77;;;15.80;99.90;;;;;;5075311;28;20134;-74
2022/09/12 07:36:23;;;;;;;31.10;15.70;;;15.80;99.90;;;;;;5078534;28;20123;-73
2022/09/12 07:38:54;;;;;;;30.00;16.02;;;15.90;99.90;;;;;;5081486;28;20058;-73
2022/09/12 07:41:25;;;;;;;32.42;17.05;;;15.90;99.90;;;;;;5076553;28;20091;-74
2022/09/12 07:43:52;;;;;;;31.98;16.40;;;16.00;99.90;;;;;;5058350;22;20060;-73
2022/09/12 07:46:18;;;;;;;31.02;16.92;;;16.10;99.90;;;;;;5056509;28;20063;-73
2022/09/12 07:48:48;;;;;;;35.75;17.02;;;16.20;99.90;;;;;;5049393;28;20083;-73
2022/09/12 07:51:14;;;;;;;30.27;15.73;;;16.10;99.90;;;;;;5039611;28;20444;-73
2022/09/12 07:53:42;;;;;;;33.25;16.52;;;16.20;99.90;;;;;;5059332;28;20049;-73
2022/09/12 07:56:09;;;;;;;37.95;19.10;;;16.30;99.90;;;;;;5055304;28;20124;-75
2022/09/12 07:58:37;;;;;;;34.67;17.48;;;16.30;99.90;;;;;;5056711;28;20517;-73
2022/09/12 08:01:14;;;;;;;34.20;18.13;;;16.30;99.90;;;;;;5031054;28;20097;-73
2022/09/12 08:03:45;;;;;;;36.20;19.33;;;16.30;99.90;;;;;;5032851;28;20124;-73
2022/09/12 08:06:19;;;;;;;33.60;16.92;;;16.40;99.90;;;;;;5046098;28;20124;-73
2022/09/12 08:08:45;;;;;;;36.60;17.83;;;16.40;99.90;;;;;;5057380;28;20493;-73
2022/09/12 08:11:13;;;;;;;34.15;17.73;;;16.50;99.90;;;;;;5050510;28;20037;-73
2022/09/12 08:13:40;;;;;;;40.28;18.33;;;16.50;99.90;;;;;;5044378;28;20458;-73
2022/09/12 08:16:15;;;;;;;30.60;17.23;;;16.60;99.90;;;;;;5051292;28;20530;-73
2022/09/12 08:18:41;;;;;;;39.67;19.50;;;16.70;99.90;;;;;;5043814;28;20297;-73
2022/09/12 08:21:13;;;;;;;42.03;19.45;;;16.70;99.90;;;;;;5066136;28;20541;-73
2022/09/12 08:23:39;;;;;;;39.17;19.55;;;16.80;99.90;;;;;;5050886;28;20098;-73
2022/09/12 08:26:05;;;;;;;32.42;17.45;;;16.90;99.90;;;;;;5063265;28;20552;-73
2022/09/12 08:28:33;;;;;;;41.25;20.75;;;17.00;99.90;;;;;;5055801;28;20048;-73
2022/09/12 08:31:03;;;;;;;43.08;20.70;;;17.00;99.90;;;;;;5058394;28;20033;-73
2022/09/12 08:33:32;;;;;;;40.50;20.42;;;17.10;99.90;;;;;;5031844;28;20275;-73
2022/09/12 08:36:25;;;;;;;39.30;20.02;;;17.10;99.90;;;;;;5041639;28;20036;-73
2022/09/12 08:38:54;;;;;;;39.78;19.92;;;17.20;99.90;;;;;;5051696;28;20522;-73
2022/09/12 08:41:27;;;;;;;37.90;18.88;;;17.20;99.90;;;;;;5057781;28;20079;-73
2022/09/12 08:44:02;;;;;;;35.88;18.50;;;17.40;99.90;;;;;;5050651;28;20527;-73
2022/09/12 08:46:33;;;;;;;38.05;20.20;;;17.40;99.90;;;;;;5055384;28;20131;-73
2022/09/12 08:49:01;;;;;;;43.10;20.58;;;17.50;99.90;;;;;;5052177;28;20174;-73
2022/09/12 08:51:28;;;;;;;37.47;19.25;;;17.50;99.90;;;;;;5058237;28;20048;-73
2022/09/12 08:53:55;;;;;;;33.97;18.80;;;17.60;99.90;;;;;;5055252;28;20418;-73
2022/09/12 08:56:21;;;;;;;36.03;19.27;;;17.70;99.90;;;;;;5067006;28;20039;-73
2022/09/12 08:58:48;;;;;;;35.80;19.00;;;17.70;99.90;;;;;;5049265;28;20407;-73
2022/09/12 09:01:37;;;;;;;37.80;20.33;;;17.80;99.90;;;;;;5054477;28;20175;-73
2022/09/12 09:04:28;;;;;;;40.88;20.58;;;17.80;99.90;;;;;;5066953;28;20048;-73
2022/09/12 09:07:11;;;;;;;43.08;19.40;;;17.90;99.90;;;;;;5060398;28;20455;-73
2022/09/12 09:09:59;;;;;;;44.75;21.40;;;17.90;99.90;;;;;;5048242;28;20452;-73
2022/09/12 09:12:30;;;;;;;;;;;18.10;99.90;;;;;;5045047;28;20036;-73
2022/09/12 09:15:32;;;;;;;44.05;20.10;;;18.10;99.90;;;;;;5048774;28;19916;-74
2022/09/12 09:18:09;;;;;;;36.78;19.40;;;18.20;99.90;;;;;;5053721;28;20632;-75
2022/09/12 09:20:45;;;;;;;43.78;18.67;;;18.20;99.90;;;;;;5057202;28;20283;-76
2022/09/12 09:23:33;;;;;;;42.60;19.55;;;18.40;99.90;;;;;;5043401;28;20037;-72
2022/09/12 09:26:14;;;;;;;45.63;19.35;;;18.40;99.90;;;;;;5046941;28;20049;-73
2022/09/12 09:28:53;;;;;;;40.38;18.83;;;18.50;99.90;;;;;;5051626;28;20059;-73
2022/09/12 09:31:21;;;;;;;39.17;17.73;;;18.50;99.90;;;;;;5053068;28;20045;-73
2022/09/12 09:33:50;;;;;;;33.75;15.55;;;18.60;99.90;;;;;;5055453;28;20044;-74
2022/09/12 09:36:21;;;;;;;33.13;16.17;;;18.60;99.90;;;;;;5048216;28;20119;-73
2022/09/12 09:38:49;;;;;;;37.67;18.35;;;18.70;99.90;;;;;;5046689;28;20041;-73
2022/09/12 09:41:26;;;;;;;34.83;16.50;;;18.80;99.90;;;;;;5057233;28;20052;-73
2022/09/12 09:43:51;;;;;;;35.13;16.02;;;18.90;99.90;;;;;;5030822;28;20036;-73
2022/09/12 09:46:17;;;;;;;31.92;15.15;;;18.90;99.90;;;;;;5057457;28;20052;-73
2022/09/12 09:48:48;;;;;;;31.25;15.77;;;19.00;99.90;;;;;;5050970;28;20048;-73
2022/09/12 09:51:17;;;;;;;28.15;14.30;;;19.00;99.90;;;;;;5061511;28;20895;-73
2022/09/12 09:53:51;;;;;;;29.60;14.40;;;19.20;99.90;;;;;;5059077;28;20377;-73
2022/09/12 09:56:35;;;;;;;28.08;14.15;;;19.30;99.90;;;;;;5056911;28;20071;-73
2022/09/12 09:59:29;;;;;;;29.30;15.23;;;19.50;99.90;;;;;;5061420;28;20120;-73
2022/09/12 10:01:56;;;;;;;31.75;16.25;;;19.60;99.90;;;;;;5038665;28;20430;-73
2022/09/12 10:04:25;;;;;;;27.45;14.75;;;19.60;99.90;;;;;;5055117;28;20513;-73
2022/09/12 10:06:57;;;;;;;25.08;13.02;;;19.70;99.90;;;;;;5040167;28;20340;-73
2022/09/12 10:09:35;;;;;;;23.98;12.23;;;19.80;99.90;;;;;;5045580;28;20108;-73
2022/09/12 10:12:39;;;;;;;22.17;10.40;;;19.90;99.90;;;;;;5048840;28;20637;-73
2022/09/12 10:15:25;;;;;;;22.40;11.05;;;20.00;99.90;;;;;;4988472;28;20129;-73
2022/09/12 10:17:51;;;;;;;25.60;12.02;;;20.10;99.90;;;;;;4961573;28;20065;-73
2022/09/12 10:20:40;;;;;;;24.95;11.45;;;20.20;99.90;;;;;;5024617;28;20516;-74
2022/09/12 10:23:22;;;;;;;21.67;11.63;;;20.30;99.90;;;;;;5054812;28;20048;-74
2022/09/12 10:25:53;;;;;;;23.48;10.82;;;20.50;99.90;;;;;;5059624;28;20251;-74
2022/09/12 10:28:30;;;;;;;18.17;10.55;;;20.50;99.90;;;;;;5056972;28;20086;-74
2022/09/12 10:30:56;;;;;;;17.25;8.23;;;20.70;99.90;;;;;;5037039;28;20090;-73
2022/09/12 10:33:25;;;;;;;14.27;7.88;;;20.80;99.90;;;;;;5045357;28;20044;-74
2022/09/12 10:35:54;;;;;;;14.85;7.90;;;20.90;99.90;;;;;;5053449;28;20490;-73
2022/09/12 10:38:31;;;;;;;13.43;8.07;;;21.00;99.90;;;;;;5037891;28;20131;-74
2022/09/12 10:41:00;;;;;;;13.35;7.40;;;21.10;99.90;;;;;;5055705;28;20127;-74
2022/09/12 10:43:33;;;;;;;16.88;8.00;;;21.20;99.90;;;;;;5046403;28;20510;-73
2022/09/12 10:46:18;;;;;;;13.25;7.80;;;21.20;99.90;;;;;;5047931;28;20041;-74
2022/09/12 10:48:46;;;;;;;13.82;7.15;;;21.30;99.90;;;;;;5049606;28;20406;-74
2022/09/12 10:51:32;;;;;;;14.00;7.97;;;21.40;99.90;;;;;;5054756;28;20044;-74
2022/09/12 10:54:03;;;;;;;14.48;6.82;;;21.50;99.90;;;;;;5035506;28;20055;-73
2022/09/12 10:56:42;;;;;;;13.48;7.72;;;21.60;99.90;;;;;;5040679;28;20124;-74
2022/09/12 10:59:25;;;;;;;13.55;7.80;;;21.70;99.90;;;;;;5062412;28;20170;-74
2022/09/12 11:01:59;;;;;;;14.07;7.68;;;21.80;99.90;;;;;;5059646;28;20497;-74
2022/09/12 11:04:31;;;;;;;16.08;8.57;;;21.90;99.90;;;;;;5059359;28;20060;-74
2022/09/12 11:07:24;;;;;;;16.08;7.90;;;22.00;99.90;;;;;;5043191;28;20447;-74
2022/09/12 11:10:08;;;;;;;15.63;8.00;;;22.10;99.90;;;;;;5057811;28;20076;-74
2022/09/12 11:12:37;;;;;;;11.73;7.45;;;22.20;99.90;;;;;;5050244;28;20470;-74
2022/09/12 11:15:24;;;;;;;17.90;7.90;;;22.30;99.90;;;;;;5050766;28;20080;-74
2022/09/12 11:18:08;;;;;;;16.52;7.93;;;22.40;99.90;;;;;;5047051;28;20063;-73
2022/09/12 11:20:56;;;;;;;11.82;5.97;;;22.40;99.90;;;;;;5059705;28;20056;-73
2022/09/12 11:23:40;;;;;;;;;;;22.50;99.90;;;;;;5055083;28;20140;-74
2022/09/12 11:26:14;;;;;;;14.00;6.25;;;22.50;99.90;;;;;;5075201;28;20003;-73
2022/09/12 11:28:59;;;;;;;12.25;6.53;;;22.40;99.90;;;;;;5054403;28;20183;-74
2022/09/12 11:32:05;;;;;;;13.25;7.28;;;22.40;99.90;;;;;;5052867;28;20041;-74
2022/09/12 11:34:49;;;;;;;12.50;6.25;;;22.40;99.90;;;;;;5046623;28;20383;-74
2022/09/12 11:37:44;;;;;;;13.48;7.25;;;22.50;99.90;;;;;;5049947;28;20055;-73
2022/09/12 11:40:29;;;;;;;12.90;6.80;;;22.60;99.90;;;;;;5052701;28;20063;-74
2022/09/12 11:43:21;;;;;;;12.23;6.85;;;22.70;99.90;;;;;;5056759;28;20094;-74
2022/09/12 11:45:48;;;;;;;14.93;7.10;;;22.70;99.90;;;;;;5054396;28;20030;-74
2022/09/12 11:48:45;;;;;;;16.85;8.63;;;22.80;99.90;;;;;;5058168;28;20040;-74
2022/09/12 11:51:38;;;;;;;18.13;8.18;;;22.80;99.90;;;;;;5040902;28;20395;-74
2022/09/12 11:54:17;;;;;;;16.85;8.38;;;23.00;99.90;;;;;;5012978;28;20135;-73
2022/09/12 11:56:49;;;;;;;14.93;7.22;;;23.00;99.90;;;;;;5040302;28;20058;-74
2022/09/12 11:59:35;;;;;;;10.13;5.55;;;23.10;99.90;;;;;;5054104;28;20068;-74
2022/09/12 12:02:03;;;;;;;10.27;5.82;;;23.10;99.90;;;;;;5052772;28;20121;-74
2022/09/12 12:04:43;;;;;;;11.80;6.22;;;23.20;99.90;;;;;;5065449;28;20048;-74
2022/09/12 12:07:10;;;;;;;11.48;6.40;;;23.10;99.90;;;;;;5050261;28;20044;-74
2022/09/12 12:09:49;;;;;;;12.77;7.18;;;23.30;99.90;;;;;;5047213;28;20057;-74
2022/09/12 12:12:21;;;;;;;10.23;6.10;;;23.30;99.90;;;;;;5052462;28;20458;-74
2022/09/12 12:14:49;;;;;;;11.65;6.63;;;23.30;99.90;;;;;;5051578;28;20351;-74
2022/09/12 12:17:24;;;;;;;12.20;6.13;;;23.40;99.90;;;;;;5052808;28;20080;-74
2022/09/12 12:19:59;;;;;;;8.77;5.22;;;23.60;99.90;;;;;;5047572;28;20048;-74
2022/09/12 12:22:25;;;;;;;10.57;6.10;;;23.70;99.90;;;;;;5049564;28;20589;-74
2022/09/12 12:24:53;;;;;;;;;;;23.70;99.90;;;;;;5053517;28;20065;-74
2022/09/12 12:28:00;;;;;;;10.55;4.88;;;23.70;99.90;;;;;;5053535;28;19922;-74
2022/09/12 12:30:28;;;;;;;10.45;5.20;;;23.60;99.90;;;;;;5056573;28;20055;-74
2022/09/12 12:33:09;;;;;;;10.65;5.97;;;23.60;99.90;;;;;;5054972;28;20040;-74
2022/09/12 12:35:35;;;;;;;10.25;5.75;;;23.50;99.90;;;;;;5051276;28;20097;-74
2022/09/12 12:38:03;;;;;;;8.75;5.00;;;23.50;99.90;;;;;;5034511;28;20047;-74
2022/09/12 12:40:30;;;;;;;7.28;4.78;;;23.40;99.90;;;;;;5056321;28;22047;-74
2022/09/12 12:42:57;;;;;;;9.55;5.35;;;23.50;99.90;;;;;;5055972;28;20127;-74
2022/09/12 12:45:25;;;;;;;8.32;4.47;;;23.50;99.90;;;;;;5061517;28;20043;-74
2022/09/12 12:48:00;;;;;;;7.93;4.72;;;23.60;99.90;;;;;;5060610;28;20340;-74
2022/09/12 12:50:29;;;;;;;8.20;4.40;;;23.70;99.90;;;;;;5049490;28;20064;-75
2022/09/12 12:53:03;;;;;;;8.57;4.45;;;23.80;99.90;;;;;;5058409;28;20048;-74
2022/09/12 12:55:32;;;;;;;8.05;4.20;;;23.80;99.90;;;;;;5053994;28;20483;-74
2022/09/12 12:58:01;;;;;;;7.68;4.28;;;23.80;99.90;;;;;;5063200;28;20051;-73
2022/09/12 13:00:41;;;;;;;9.07;5.45;;;23.90;99.90;;;;;;5047454;28;20047;-74
2022/09/12 13:03:17;;;;;;;9.77;5.47;;;23.80;99.90;;;;;;5054683;28;20036;-74
2022/09/12 13:05:47;;;;;;;;;;;23.80;99.90;;;;;;5053539;28;20654;-74
2022/09/12 13:08:16;;;;;;;9.38;4.88;;;23.80;99.90;;;;;;5050916;28;20003;-73